sensor_id;sensor_type;location;lat;lon;timestamp;P1;durP1;ratioP1;P2;durP2;ratioP2
10082;SDS011;5080;48.528;8.078;2023-04-06T00:00:46;1.20;;;1.20;;
10082;SDS011;5080;48.528;8.078;2023-04-06T00:03:13;1.30;;;1.30;;
10082;SDS011;5080;48.528;8.078;2023-04-06T00:05:41;1.25;;;1.25;;
10082;SDS011;5080;48.528;8.078;2023-04-06T00:08:08;1.23;;;1.23;;
10082;SDS011;5080;48.528;8.078;2023-04-06T00:10:35;1.40;;;1.30;;
10082;SDS011;5080;48.528;8.078;2023-04-06T00:13:02;1.17;;;1.17;;
10082;SDS011;5080;48.528;8.078;2023-04-06T00:15:29;1.63;;;1.52;;
10082;SDS011;5080;48.528;8.078;2023-04-06T00:17:57;1.20;;;1.20;;
10082;SDS011;5080;48.528;8.078;2023-04-06T00:20:24;1.38;;;1.33;;
10082;SDS011;5080;48.528;8.078;2023-04-06T00:22:51;1.23;;;1.23;;
10082;SDS011;5080;48.528;8.078;2023-04-06T00:25:19;1.40;;;1.30;;
10082;SDS011;5080;48.528;8.078;2023-04-06T00:27:46;1.15;;;1.15;;
10082;SDS011;5080;48.528;8.078;2023-04-06T00:30:13;1.25;;;1.25;;
10082;SDS011;5080;48.528;8.078;2023-04-06T00:32:40;1.38;;;1.27;;
10082;SDS011;5080;48.528;8.078;2023-04-06T00:35:08;1.25;;;1.20;;
10082;SDS011;5080;48.528;8.078;2023-04-06T00:37:36;1.38;;;1.30;;
10082;SDS011;5080;48.528;8.078;2023-04-06T00:40:03;1.20;;;1.20;;
10082;SDS011;5080;48.528;8.078;2023-04-06T00:42:30;1.52;;;1.45;;
10082;SDS011;5080;48.528;8.078;2023-04-06T00:44:58;1.08;;;1.08;;
10082;SDS011;5080;48.528;8.078;2023-04-06T00:47:26;1.10;;;1.10;;
10082;SDS011;5080;48.528;8.078;2023-04-06T00:49:54;1.10;;;1.10;;
10082;SDS011;5080;48.528;8.078;2023-04-06T00:52:22;1.10;;;1.10;;
10082;SDS011;5080;48.528;8.078;2023-04-06T00:54:49;1.50;;;1.40;;
10082;SDS011;5080;48.528;8.078;2023-04-06T00:57:16;1.10;;;1.10;;
10082;SDS011;5080;48.528;8.078;2023-04-06T00:59:44;1.30;;;1.20;;
10082;SDS011;5080;48.528;8.078;2023-04-06T01:02:11;1.20;;;1.20;;
10082;SDS011;5080;48.528;8.078;2023-04-06T01:04:38;1.20;;;1.20;;
10082;SDS011;5080;48.528;8.078;2023-04-06T01:07:05;1.17;;;1.17;;
10082;SDS011;5080;48.528;8.078;2023-04-06T01:09:34;1.10;;;1.10;;
10082;SDS011;5080;48.528;8.078;2023-04-06T01:12:01;1.27;;;1.27;;
10082;SDS011;5080;48.528;8.078;2023-04-06T01:14:28;1.23;;;1.10;;
10082;SDS011;5080;48.528;8.078;2023-04-06T01:16:57;1.58;;;1.48;;
10082;SDS011;5080;48.528;8.078;2023-04-06T01:19:24;1.25;;;1.25;;
10082;SDS011;5080;48.528;8.078;2023-04-06T01:21:51;1.30;;;1.30;;
10082;SDS011;5080;48.528;8.078;2023-04-06T01:24:20;1.30;;;1.30;;
10082;SDS011;5080;48.528;8.078;2023-04-06T01:26:47;1.05;;;1.05;;
10082;SDS011;5080;48.528;8.078;2023-04-06T01:29:14;1.20;;;1.20;;
10082;SDS011;5080;48.528;8.078;2023-04-06T01:31:41;1.30;;;1.30;;
10082;SDS011;5080;48.528;8.078;2023-04-06T01:34:08;1.52;;;1.20;;
10082;SDS011;5080;48.528;8.078;2023-04-06T01:36:35;1.20;;;1.20;;
10082;SDS011;5080;48.528;8.078;2023-04-06T01:39:02;1.25;;;1.25;;
10082;SDS011;5080;48.528;8.078;2023-04-06T01:41:30;1.30;;;1.30;;
10082;SDS011;5080;48.528;8.078;2023-04-06T01:43:57;1.40;;;1.30;;
10082;SDS011;5080;48.528;8.078;2023-04-06T01:46:24;1.20;;;1.20;;
10082;SDS011;5080;48.528;8.078;2023-04-06T01:48:51;1.88;;;1.40;;
10082;SDS011;5080;48.528;8.078;2023-04-06T01:51:18;1.20;;;1.20;;
10082;SDS011;5080;48.528;8.078;2023-04-06T01:53:45;1.20;;;1.20;;
10082;SDS011;5080;48.528;8.078;2023-04-06T01:56:13;1.27;;;1.27;;
10082;SDS011;5080;48.528;8.078;2023-04-06T01:58:41;1.20;;;1.20;;
10082;SDS011;5080;48.528;8.078;2023-04-06T02:01:08;1.40;;;1.40;;
10082;SDS011;5080;48.528;8.078;2023-04-06T02:03:35;1.10;;;1.10;;
10082;SDS011;5080;48.528;8.078;2023-04-06T02:06:02;1.10;;;1.10;;
10082;SDS011;5080;48.528;8.078;2023-04-06T02:08:30;1.30;;;1.30;;
10082;SDS011;5080;48.528;8.078;2023-04-06T02:10:57;1.17;;;1.17;;
10082;SDS011;5080;48.528;8.078;2023-04-06T02:13:23;1.35;;;1.30;;
10082;SDS011;5080;48.528;8.078;2023-04-06T02:15:52;1.30;;;1.30;;
10082;SDS011;5080;48.528;8.078;2023-04-06T02:18:19;1.30;;;1.30;;
10082;SDS011;5080;48.528;8.078;2023-04-06T02:20:45;1.50;;;1.40;;
10082;SDS011;5080;48.528;8.078;2023-04-06T02:23:12;1.30;;;1.30;;
10082;SDS011;5080;48.528;8.078;2023-04-06T02:25:39;1.10;;;1.10;;
10082;SDS011;5080;48.528;8.078;2023-04-06T02:28:06;1.25;;;1.20;;
10082;SDS011;5080;48.528;8.078;2023-04-06T02:30:33;1.30;;;1.30;;
10082;SDS011;5080;48.528;8.078;2023-04-06T02:33:02;1.27;;;1.27;;
10082;SDS011;5080;48.528;8.078;2023-04-06T02:35:29;1.30;;;1.30;;
10082;SDS011;5080;48.528;8.078;2023-04-06T02:37:57;1.30;;;1.30;;
10082;SDS011;5080;48.528;8.078;2023-04-06T02:40:24;1.40;;;1.30;;
10082;SDS011;5080;48.528;8.078;2023-04-06T02:42:51;1.30;;;1.30;;
10082;SDS011;5080;48.528;8.078;2023-04-06T02:45:18;1.20;;;1.20;;
10082;SDS011;5080;48.528;8.078;2023-04-06T02:47:45;1.73;;;1.63;;
10082;SDS011;5080;48.528;8.078;2023-04-06T02:50:13;1.40;;;1.40;;
10082;SDS011;5080;48.528;8.078;2023-04-06T02:52:41;1.42;;;1.33;;
10082;SDS011;5080;48.528;8.078;2023-04-06T02:55:08;1.05;;;1.05;;
10082;SDS011;5080;48.528;8.078;2023-04-06T02:57:35;1.30;;;1.20;;
10082;SDS011;5080;48.528;8.078;2023-04-06T03:00:02;1.48;;;1.38;;
10082;SDS011;5080;48.528;8.078;2023-04-06T03:02:29;1.10;;;1.10;;
10082;SDS011;5080;48.528;8.078;2023-04-06T03:04:56;1.00;;;1.00;;
10082;SDS011;5080;48.528;8.078;2023-04-06T03:07:25;1.13;;;1.13;;
10082;SDS011;5080;48.528;8.078;2023-04-06T03:09:52;1.20;;;1.20;;
10082;SDS011;5080;48.528;8.078;2023-04-06T03:12:18;1.40;;;1.30;;
10082;SDS011;5080;48.528;8.078;2023-04-06T03:14:45;1.00;;;1.00;;
10082;SDS011;5080;48.528;8.078;2023-04-06T03:17:12;1.20;;;1.20;;
10082;SDS011;5080;48.528;8.078;2023-04-06T03:19:39;1.20;;;1.20;;
10082;SDS011;5080;48.528;8.078;2023-04-06T03:22:07;1.60;;;1.50;;
10082;SDS011;5080;48.528;8.078;2023-04-06T03:24:35;1.27;;;1.27;;
10082;SDS011;5080;48.528;8.078;2023-04-06T03:27:02;1.20;;;1.20;;
10082;SDS011;5080;48.528;8.078;2023-04-06T03:29:29;1.27;;;1.27;;
10082;SDS011;5080;48.528;8.078;2023-04-06T03:31:56;1.40;;;1.30;;
10082;SDS011;5080;48.528;8.078;2023-04-06T03:34:23;1.10;;;1.10;;
10082;SDS011;5080;48.528;8.078;2023-04-06T03:36:50;1.10;;;1.10;;
10082;SDS011;5080;48.528;8.078;2023-04-06T03:39:16;1.27;;;1.27;;
10082;SDS011;5080;48.528;8.078;2023-04-06T03:41:45;1.15;;;1.15;;
10082;SDS011;5080;48.528;8.078;2023-04-06T03:44:12;1.27;;;1.20;;
10082;SDS011;5080;48.528;8.078;2023-04-06T03:46:38;1.30;;;1.30;;
10082;SDS011;5080;48.528;8.078;2023-04-06T03:49:05;1.33;;;1.33;;
10082;SDS011;5080;48.528;8.078;2023-04-06T03:51:32;1.35;;;1.25;;
10082;SDS011;5080;48.528;8.078;2023-04-06T03:53:59;1.50;;;1.40;;
10082;SDS011;5080;48.528;8.078;2023-04-06T03:56:26;1.20;;;1.20;;
10082;SDS011;5080;48.528;8.078;2023-04-06T03:58:54;1.57;;;1.50;;
10082;SDS011;5080;48.528;8.078;2023-04-06T04:01:21;1.50;;;1.40;;
10082;SDS011;5080;48.528;8.078;2023-04-06T04:03:48;1.50;;;1.40;;
10082;SDS011;5080;48.528;8.078;2023-04-06T04:06:15;1.20;;;1.20;;
10082;SDS011;5080;48.528;8.078;2023-04-06T04:08:42;1.40;;;1.40;;
10082;SDS011;5080;48.528;8.078;2023-04-06T04:11:09;1.52;;;1.42;;
10082;SDS011;5080;48.528;8.078;2023-04-06T04:13:36;1.20;;;1.20;;
10082;SDS011;5080;48.528;8.078;2023-04-06T04:16:04;1.20;;;1.20;;
10082;SDS011;5080;48.528;8.078;2023-04-06T04:18:31;1.45;;;1.35;;
10082;SDS011;5080;48.528;8.078;2023-04-06T04:20:58;1.30;;;1.30;;
10082;SDS011;5080;48.528;8.078;2023-04-06T04:23:25;1.53;;;1.43;;
10082;SDS011;5080;48.528;8.078;2023-04-06T04:25:52;1.55;;;1.45;;
10082;SDS011;5080;48.528;8.078;2023-04-06T04:28:19;1.35;;;1.30;;
10082;SDS011;5080;48.528;8.078;2023-04-06T04:30:46;1.50;;;1.40;;
10082;SDS011;5080;48.528;8.078;2023-04-06T04:33:14;1.20;;;1.20;;
10082;SDS011;5080;48.528;8.078;2023-04-06T04:35:41;1.65;;;1.55;;
10082;SDS011;5080;48.528;8.078;2023-04-06T04:38:08;1.60;;;1.50;;
10082;SDS011;5080;48.528;8.078;2023-04-06T04:40:35;1.38;;;1.38;;
10082;SDS011;5080;48.528;8.078;2023-04-06T04:43:02;1.50;;;1.40;;
10082;SDS011;5080;48.528;8.078;2023-04-06T04:45:29;1.40;;;1.40;;
10082;SDS011;5080;48.528;8.078;2023-04-06T04:47:56;1.70;;;1.60;;
10082;SDS011;5080;48.528;8.078;2023-04-06T04:50:24;1.58;;;1.48;;
10082;SDS011;5080;48.528;8.078;2023-04-06T04:52:51;1.50;;;1.40;;
10082;SDS011;5080;48.528;8.078;2023-04-06T04:55:18;1.50;;;1.40;;
10082;SDS011;5080;48.528;8.078;2023-04-06T04:57:45;1.27;;;1.27;;
10082;SDS011;5080;48.528;8.078;2023-04-06T05:00:12;1.23;;;1.23;;
10082;SDS011;5080;48.528;8.078;2023-04-06T05:02:40;1.70;;;1.60;;
10082;SDS011;5080;48.528;8.078;2023-04-06T05:05:07;1.85;;;1.75;;
10082;SDS011;5080;48.528;8.078;2023-04-06T05:07:36;1.70;;;1.60;;
10082;SDS011;5080;48.528;8.078;2023-04-06T05:10:03;1.50;;;1.48;;
10082;SDS011;5080;48.528;8.078;2023-04-06T05:12:30;1.65;;;1.55;;
10082;SDS011;5080;48.528;8.078;2023-04-06T05:14:57;1.20;;;1.20;;
10082;SDS011;5080;48.528;8.078;2023-04-06T05:17:24;1.83;;;1.73;;
10082;SDS011;5080;48.528;8.078;2023-04-06T05:19:51;1.60;;;1.50;;
10082;SDS011;5080;48.528;8.078;2023-04-06T05:22:18;1.70;;;1.58;;
10082;SDS011;5080;48.528;8.078;2023-04-06T05:24:47;1.43;;;1.40;;
10082;SDS011;5080;48.528;8.078;2023-04-06T05:27:13;1.83;;;1.73;;
10082;SDS011;5080;48.528;8.078;2023-04-06T05:29:40;1.50;;;1.40;;
10082;SDS011;5080;48.528;8.078;2023-04-06T05:32:08;1.60;;;1.42;;
10082;SDS011;5080;48.528;8.078;2023-04-06T05:34:35;1.48;;;1.38;;
10082;SDS011;5080;48.528;8.078;2023-04-06T05:37:02;1.70;;;1.60;;
10082;SDS011;5080;48.528;8.078;2023-04-06T05:39:29;1.60;;;1.50;;
10082;SDS011;5080;48.528;8.078;2023-04-06T05:41:57;1.50;;;1.40;;
10082;SDS011;5080;48.528;8.078;2023-04-06T05:44:24;1.30;;;1.30;;
10082;SDS011;5080;48.528;8.078;2023-04-06T05:46:51;1.30;;;1.30;;
10082;SDS011;5080;48.528;8.078;2023-04-06T05:49:18;1.63;;;1.55;;
10082;SDS011;5080;48.528;8.078;2023-04-06T05:51:45;1.58;;;1.48;;
10082;SDS011;5080;48.528;8.078;2023-04-06T05:54:12;1.23;;;1.23;;
10082;SDS011;5080;48.528;8.078;2023-04-06T05:56:39;1.73;;;1.63;;
10082;SDS011;5080;48.528;8.078;2023-04-06T05:59:07;1.65;;;1.58;;
10082;SDS011;5080;48.528;8.078;2023-04-06T06:01:34;1.60;;;1.50;;
10082;SDS011;5080;48.528;8.078;2023-04-06T06:04:01;1.75;;;1.67;;
10082;SDS011;5080;48.528;8.078;2023-04-06T06:06:28;1.60;;;1.50;;
10082;SDS011;5080;48.528;8.078;2023-04-06T06:08:56;1.45;;;1.40;;
10082;SDS011;5080;48.528;8.078;2023-04-06T06:11:24;1.40;;;1.40;;
10082;SDS011;5080;48.528;8.078;2023-04-06T06:13:51;1.40;;;1.40;;
10082;SDS011;5080;48.528;8.078;2023-04-06T06:16:19;1.70;;;1.60;;
10082;SDS011;5080;48.528;8.078;2023-04-06T06:18:46;1.55;;;1.45;;
10082;SDS011;5080;48.528;8.078;2023-04-06T06:21:13;1.58;;;1.48;;
10082;SDS011;5080;48.528;8.078;2023-04-06T06:23:42;1.58;;;1.50;;
10082;SDS011;5080;48.528;8.078;2023-04-06T06:26:09;1.60;;;1.50;;
10082;SDS011;5080;48.528;8.078;2023-04-06T06:28:36;1.80;;;1.70;;
10082;SDS011;5080;48.528;8.078;2023-04-06T06:31:02;1.80;;;1.70;;
10082;SDS011;5080;48.528;8.078;2023-04-06T06:33:31;1.90;;;1.80;;
10082;SDS011;5080;48.528;8.078;2023-04-06T06:35:58;1.60;;;1.50;;
10082;SDS011;5080;48.528;8.078;2023-04-06T06:38:25;1.60;;;1.50;;
10082;SDS011;5080;48.528;8.078;2023-04-06T06:40:52;1.43;;;1.43;;
10082;SDS011;5080;48.528;8.078;2023-04-06T06:43:19;1.37;;;1.37;;
10082;SDS011;5080;48.528;8.078;2023-04-06T06:45:46;1.40;;;1.40;;
10082;SDS011;5080;48.528;8.078;2023-04-06T06:48:14;1.70;;;1.60;;
10082;SDS011;5080;48.528;8.078;2023-04-06T06:50:42;1.50;;;1.40;;
10082;SDS011;5080;48.528;8.078;2023-04-06T06:53:09;1.40;;;1.40;;
10082;SDS011;5080;48.528;8.078;2023-04-06T06:55:36;1.60;;;1.50;;
10082;SDS011;5080;48.528;8.078;2023-04-06T06:58:03;1.58;;;1.48;;
10082;SDS011;5080;48.528;8.078;2023-04-06T07:00:31;1.67;;;1.50;;
10082;SDS011;5080;48.528;8.078;2023-04-06T07:02:58;1.30;;;1.30;;
10082;SDS011;5080;48.528;8.078;2023-04-06T07:05:25;1.60;;;1.50;;
10082;SDS011;5080;48.528;8.078;2023-04-06T07:07:53;1.50;;;1.40;;
10082;SDS011;5080;48.528;8.078;2023-04-06T07:10:20;1.40;;;1.30;;
10082;SDS011;5080;48.528;8.078;2023-04-06T07:12:48;1.40;;;1.30;;
10082;SDS011;5080;48.528;8.078;2023-04-06T07:15:14;1.37;;;1.33;;
10082;SDS011;5080;48.528;8.078;2023-04-06T07:17:42;1.40;;;1.40;;
10082;SDS011;5080;48.528;8.078;2023-04-06T07:20:10;1.58;;;1.48;;
10082;SDS011;5080;48.528;8.078;2023-04-06T07:22:37;1.67;;;1.50;;
10082;SDS011;5080;48.528;8.078;2023-04-06T07:25:06;1.30;;;1.30;;
10082;SDS011;5080;48.528;8.078;2023-04-06T07:27:34;1.20;;;1.20;;
10082;SDS011;5080;48.528;8.078;2023-04-06T07:30:01;1.00;;;1.00;;
10082;SDS011;5080;48.528;8.078;2023-04-06T07:32:28;1.20;;;1.20;;
10082;SDS011;5080;48.528;8.078;2023-04-06T07:34:55;1.30;;;1.20;;
10082;SDS011;5080;48.528;8.078;2023-04-06T07:37:23;1.00;;;1.00;;
10082;SDS011;5080;48.528;8.078;2023-04-06T07:39:50;1.30;;;1.30;;
10082;SDS011;5080;48.528;8.078;2023-04-06T07:42:18;1.23;;;1.23;;
10082;SDS011;5080;48.528;8.078;2023-04-06T07:44:45;1.17;;;1.17;;
10082;SDS011;5080;48.528;8.078;2023-04-06T07:47:12;1.10;;;1.10;;
10082;SDS011;5080;48.528;8.078;2023-04-06T07:49:39;1.20;;;1.20;;
10082;SDS011;5080;48.528;8.078;2023-04-06T07:52:06;1.27;;;1.27;;
10082;SDS011;5080;48.528;8.078;2023-04-06T07:54:33;1.10;;;1.10;;
10082;SDS011;5080;48.528;8.078;2023-04-06T07:57:00;1.00;;;1.00;;
10082;SDS011;5080;48.528;8.078;2023-04-06T07:59:28;1.10;;;1.10;;
10082;SDS011;5080;48.528;8.078;2023-04-06T08:01:55;1.00;;;1.00;;
10082;SDS011;5080;48.528;8.078;2023-04-06T08:04:22;1.50;;;1.40;;
10082;SDS011;5080;48.528;8.078;2023-04-06T08:06:49;1.20;;;1.20;;
10082;SDS011;5080;48.528;8.078;2023-04-06T08:09:16;1.00;;;1.00;;
10082;SDS011;5080;48.528;8.078;2023-04-06T08:11:43;1.10;;;1.10;;
10082;SDS011;5080;48.528;8.078;2023-04-06T08:14:11;1.60;;;1.50;;
10082;SDS011;5080;48.528;8.078;2023-04-06T08:16:39;1.70;;;1.60;;
10082;SDS011;5080;48.528;8.078;2023-04-06T08:19:06;2.45;;;2.35;;
10082;SDS011;5080;48.528;8.078;2023-04-06T08:21:34;3.58;;;3.38;;
10082;SDS011;5080;48.528;8.078;2023-04-06T08:24:01;4.18;;;3.95;;
10082;SDS011;5080;48.528;8.078;2023-04-06T08:26:28;3.70;;;3.50;;
10082;SDS011;5080;48.528;8.078;2023-04-06T08:28:55;3.22;;;3.03;;
10082;SDS011;5080;48.528;8.078;2023-04-06T08:31:22;3.22;;;3.03;;
10082;SDS011;5080;48.528;8.078;2023-04-06T08:33:50;3.20;;;3.00;;
10082;SDS011;5080;48.528;8.078;2023-04-06T08:36:17;2.60;;;2.40;;
10082;SDS011;5080;48.528;8.078;2023-04-06T08:38:47;2.80;;;2.70;;
10082;SDS011;5080;48.528;8.078;2023-04-06T08:41:15;2.85;;;2.65;;
10082;SDS011;5080;48.528;8.078;2023-04-06T08:43:43;2.00;;;1.90;;
10082;SDS011;5080;48.528;8.078;2023-04-06T08:46:12;1.70;;;1.60;;
10082;SDS011;5080;48.528;8.078;2023-04-06T08:48:40;1.90;;;1.80;;
10082;SDS011;5080;48.528;8.078;2023-04-06T08:51:09;1.85;;;1.70;;
10082;SDS011;5080;48.528;8.078;2023-04-06T08:53:37;1.77;;;1.67;;
10082;SDS011;5080;48.528;8.078;2023-04-06T08:56:05;1.87;;;1.77;;
10082;SDS011;5080;48.528;8.078;2023-04-06T08:58:34;2.15;;;2.05;;
10082;SDS011;5080;48.528;8.078;2023-04-06T09:01:02;2.00;;;1.90;;
10082;SDS011;5080;48.528;8.078;2023-04-06T09:03:34;2.13;;;1.90;;
10082;SDS011;5080;48.528;8.078;2023-04-06T09:06:04;1.80;;;1.70;;
10082;SDS011;5080;48.528;8.078;2023-04-06T09:08:34;2.03;;;1.92;;
10082;SDS011;5080;48.528;8.078;2023-04-06T09:11:01;1.77;;;1.67;;
10082;SDS011;5080;48.528;8.078;2023-04-06T09:13:28;1.60;;;1.50;;
10082;SDS011;5080;48.528;8.078;2023-04-06T09:15:58;2.08;;;1.95;;
10082;SDS011;5080;48.528;8.078;2023-04-06T09:18:29;1.60;;;1.50;;
10082;SDS011;5080;48.528;8.078;2023-04-06T09:20:57;2.17;;;1.90;;
10082;SDS011;5080;48.528;8.078;2023-04-06T09:23:25;1.63;;;1.52;;
10082;SDS011;5080;48.528;8.078;2023-04-06T09:26:04;1.70;;;1.60;;
10082;SDS011;5080;48.528;8.078;2023-04-06T09:28:40;1.40;;;1.40;;
10082;SDS011;5080;48.528;8.078;2023-04-06T09:31:08;1.42;;;1.40;;
10082;SDS011;5080;48.528;8.078;2023-04-06T09:33:37;1.52;;;1.50;;
10082;SDS011;5080;48.528;8.078;2023-04-06T09:36:05;1.40;;;1.27;;
10082;SDS011;5080;48.528;8.078;2023-04-06T09:38:34;1.40;;;1.30;;
10082;SDS011;5080;48.528;8.078;2023-04-06T09:41:04;1.63;;;1.53;;
10082;SDS011;5080;48.528;8.078;2023-04-06T09:43:31;1.35;;;1.35;;
10082;SDS011;5080;48.528;8.078;2023-04-06T09:45:58;1.50;;;1.40;;
10082;SDS011;5080;48.528;8.078;2023-04-06T09:48:28;1.20;;;1.20;;
10082;SDS011;5080;48.528;8.078;2023-04-06T09:51:02;1.70;;;1.50;;
10082;SDS011;5080;48.528;8.078;2023-04-06T09:53:30;1.40;;;1.40;;
10082;SDS011;5080;48.528;8.078;2023-04-06T09:56:04;1.27;;;1.27;;
10082;SDS011;5080;48.528;8.078;2023-04-06T09:58:37;1.42;;;1.38;;
10082;SDS011;5080;48.528;8.078;2023-04-06T10:01:09;1.50;;;1.40;;
10082;SDS011;5080;48.528;8.078;2023-04-06T10:03:40;1.48;;;1.38;;
10082;SDS011;5080;48.528;8.078;2023-04-06T10:06:14;1.30;;;1.30;;
10082;SDS011;5080;48.528;8.078;2023-04-06T10:08:43;1.40;;;1.30;;
10082;SDS011;5080;48.528;8.078;2023-04-06T10:11:15;1.10;;;1.10;;
10082;SDS011;5080;48.528;8.078;2023-04-06T10:13:42;1.55;;;1.45;;
10082;SDS011;5080;48.528;8.078;2023-04-06T10:16:09;1.30;;;1.30;;
10082;SDS011;5080;48.528;8.078;2023-04-06T10:18:38;1.40;;;1.30;;
10082;SDS011;5080;48.528;8.078;2023-04-06T10:21:09;1.30;;;1.30;;
10082;SDS011;5080;48.528;8.078;2023-04-06T10:23:41;1.63;;;1.20;;
10082;SDS011;5080;48.528;8.078;2023-04-06T10:26:15;1.30;;;1.30;;
10082;SDS011;5080;48.528;8.078;2023-04-06T10:28:45;1.25;;;1.20;;
10082;SDS011;5080;48.528;8.078;2023-04-06T10:31:13;1.10;;;1.10;;
10082;SDS011;5080;48.528;8.078;2023-04-06T10:33:40;1.10;;;1.10;;
10082;SDS011;5080;48.528;8.078;2023-04-06T10:36:11;1.10;;;1.10;;
10082;SDS011;5080;48.528;8.078;2023-04-06T10:38:39;0.90;;;0.90;;
10082;SDS011;5080;48.528;8.078;2023-04-06T10:41:06;1.00;;;1.00;;
10082;SDS011;5080;48.528;8.078;2023-04-06T10:43:35;1.10;;;1.10;;
10082;SDS011;5080;48.528;8.078;2023-04-06T10:46:04;1.10;;;1.10;;
10082;SDS011;5080;48.528;8.078;2023-04-06T10:48:38;0.82;;;0.82;;
10082;SDS011;5080;48.528;8.078;2023-04-06T10:51:09;0.90;;;0.90;;
10082;SDS011;5080;48.528;8.078;2023-04-06T10:53:37;1.17;;;0.90;;
10082;SDS011;5080;48.528;8.078;2023-04-06T10:56:09;0.98;;;0.98;;
10082;SDS011;5080;48.528;8.078;2023-04-06T10:58:38;1.25;;;1.00;;
10082;SDS011;5080;48.528;8.078;2023-04-06T11:01:11;0.93;;;0.93;;
10082;SDS011;5080;48.528;8.078;2023-04-06T11:03:42;1.10;;;1.10;;
10082;SDS011;5080;48.528;8.078;2023-04-06T11:06:10;0.93;;;0.93;;
10082;SDS011;5080;48.528;8.078;2023-04-06T11:08:43;1.00;;;1.00;;
10082;SDS011;5080;48.528;8.078;2023-04-06T11:11:10;1.10;;;1.10;;
10082;SDS011;5080;48.528;8.078;2023-04-06T11:13:42;1.10;;;1.10;;
10082;SDS011;5080;48.528;8.078;2023-04-06T11:16:13;1.10;;;1.10;;
10082;SDS011;5080;48.528;8.078;2023-04-06T11:18:51;1.38;;;1.30;;
10082;SDS011;5080;48.528;8.078;2023-04-06T11:21:30;1.10;;;1.10;;
10082;SDS011;5080;48.528;8.078;2023-04-06T11:24:06;1.40;;;1.30;;
10082;SDS011;5080;48.528;8.078;2023-04-06T11:26:36;1.13;;;1.13;;
10082;SDS011;5080;48.528;8.078;2023-04-06T11:29:05;1.20;;;1.20;;
10082;SDS011;5080;48.528;8.078;2023-04-06T11:31:37;1.17;;;1.17;;
10082;SDS011;5080;48.528;8.078;2023-04-06T11:34:08;1.27;;;1.27;;
10082;SDS011;5080;48.528;8.078;2023-04-06T11:36:36;1.10;;;1.10;;
10082;SDS011;5080;48.528;8.078;2023-04-06T11:39:06;1.20;;;1.20;;
10082;SDS011;5080;48.528;8.078;2023-04-06T11:41:33;1.50;;;1.40;;
10082;SDS011;5080;48.528;8.078;2023-04-06T11:44:01;1.33;;;1.33;;
10082;SDS011;5080;48.528;8.078;2023-04-06T11:46:29;1.55;;;1.45;;
10082;SDS011;5080;48.528;8.078;2023-04-06T11:48:57;1.60;;;1.50;;
10082;SDS011;5080;48.528;8.078;2023-04-06T11:51:25;1.45;;;1.40;;
10082;SDS011;5080;48.528;8.078;2023-04-06T11:53:52;1.40;;;1.40;;
10082;SDS011;5080;48.528;8.078;2023-04-06T11:56:23;1.30;;;1.30;;
10082;SDS011;5080;48.528;8.078;2023-04-06T11:58:51;1.30;;;1.30;;
10082;SDS011;5080;48.528;8.078;2023-04-06T12:01:19;1.42;;;1.33;;
10082;SDS011;5080;48.528;8.078;2023-04-06T12:03:47;1.60;;;1.50;;
10082;SDS011;5080;48.528;8.078;2023-04-06T12:06:14;1.30;;;1.30;;
10082;SDS011;5080;48.528;8.078;2023-04-06T12:08:41;1.70;;;1.60;;
10082;SDS011;5080;48.528;8.078;2023-04-06T12:11:08;1.60;;;1.50;;
10082;SDS011;5080;48.528;8.078;2023-04-06T12:13:35;1.70;;;1.60;;
10082;SDS011;5080;48.528;8.078;2023-04-06T12:16:02;1.33;;;1.33;;
10082;SDS011;5080;48.528;8.078;2023-04-06T12:18:29;1.33;;;1.30;;
10082;SDS011;5080;48.528;8.078;2023-04-06T12:20:57;1.33;;;1.30;;
10082;SDS011;5080;48.528;8.078;2023-04-06T12:23:24;1.60;;;1.50;;
10082;SDS011;5080;48.528;8.078;2023-04-06T12:25:51;1.75;;;1.65;;
10082;SDS011;5080;48.528;8.078;2023-04-06T12:28:19;1.70;;;1.60;;
10082;SDS011;5080;48.528;8.078;2023-04-06T12:30:48;1.50;;;1.50;;
10082;SDS011;5080;48.528;8.078;2023-04-06T12:33:15;1.50;;;1.50;;
10082;SDS011;5080;48.528;8.078;2023-04-06T12:35:42;1.50;;;1.40;;
10082;SDS011;5080;48.528;8.078;2023-04-06T12:38:11;1.30;;;1.30;;
10082;SDS011;5080;48.528;8.078;2023-04-06T12:40:38;1.60;;;1.50;;
10082;SDS011;5080;48.528;8.078;2023-04-06T12:43:05;1.80;;;1.70;;
10082;SDS011;5080;48.528;8.078;2023-04-06T12:45:32;1.70;;;1.60;;
10082;SDS011;5080;48.528;8.078;2023-04-06T12:47:59;1.70;;;1.60;;
10082;SDS011;5080;48.528;8.078;2023-04-06T12:50:26;1.40;;;1.40;;
10082;SDS011;5080;48.528;8.078;2023-04-06T12:52:53;1.38;;;1.33;;
10082;SDS011;5080;48.528;8.078;2023-04-06T12:55:21;1.23;;;1.23;;
10082;SDS011;5080;48.528;8.078;2023-04-06T12:57:48;1.30;;;1.30;;
10082;SDS011;5080;48.528;8.078;2023-04-06T13:00:16;1.38;;;1.35;;
10082;SDS011;5080;48.528;8.078;2023-04-06T13:02:43;1.90;;;1.80;;
10082;SDS011;5080;48.528;8.078;2023-04-06T13:05:12;1.80;;;1.70;;
10082;SDS011;5080;48.528;8.078;2023-04-06T13:07:43;1.30;;;1.30;;
10082;SDS011;5080;48.528;8.078;2023-04-06T13:10:11;1.70;;;1.60;;
10082;SDS011;5080;48.528;8.078;2023-04-06T13:12:39;1.70;;;1.60;;
10082;SDS011;5080;48.528;8.078;2023-04-06T13:15:06;1.50;;;1.50;;
10082;SDS011;5080;48.528;8.078;2023-04-06T13:17:34;1.58;;;1.58;;
10082;SDS011;5080;48.528;8.078;2023-04-06T13:20:00;1.52;;;1.50;;
10082;SDS011;5080;48.528;8.078;2023-04-06T13:22:28;1.73;;;1.50;;
10082;SDS011;5080;48.528;8.078;2023-04-06T13:24:55;1.70;;;1.40;;
10082;SDS011;5080;48.528;8.078;2023-04-06T13:27:22;1.30;;;1.30;;
10082;SDS011;5080;48.528;8.078;2023-04-06T13:29:51;1.40;;;1.40;;
10082;SDS011;5080;48.528;8.078;2023-04-06T13:32:17;1.45;;;1.45;;
10082;SDS011;5080;48.528;8.078;2023-04-06T13:34:44;1.40;;;1.40;;
10082;SDS011;5080;48.528;8.078;2023-04-06T13:37:14;1.45;;;1.40;;
10082;SDS011;5080;48.528;8.078;2023-04-06T13:39:42;1.50;;;1.40;;
10082;SDS011;5080;48.528;8.078;2023-04-06T13:42:09;1.40;;;1.40;;
10082;SDS011;5080;48.528;8.078;2023-04-06T13:44:36;1.27;;;1.27;;
10082;SDS011;5080;48.528;8.078;2023-04-06T13:47:04;1.48;;;1.48;;
10082;SDS011;5080;48.528;8.078;2023-04-06T13:49:31;1.30;;;1.30;;
10082;SDS011;5080;48.528;8.078;2023-04-06T13:51:58;1.70;;;1.60;;
10082;SDS011;5080;48.528;8.078;2023-04-06T13:54:26;1.40;;;1.30;;
10082;SDS011;5080;48.528;8.078;2023-04-06T13:56:53;1.60;;;1.50;;
10082;SDS011;5080;48.528;8.078;2023-04-06T13:59:20;1.63;;;1.52;;
10082;SDS011;5080;48.528;8.078;2023-04-06T14:01:47;1.60;;;1.50;;
10082;SDS011;5080;48.528;8.078;2023-04-06T14:04:15;1.63;;;1.52;;
10082;SDS011;5080;48.528;8.078;2023-04-06T14:06:44;1.42;;;1.42;;
10082;SDS011;5080;48.528;8.078;2023-04-06T14:09:11;1.42;;;1.42;;
10082;SDS011;5080;48.528;8.078;2023-04-06T14:11:38;1.20;;;1.20;;
10082;SDS011;5080;48.528;8.078;2023-04-06T14:14:05;1.33;;;1.33;;
10082;SDS011;5080;48.528;8.078;2023-04-06T14:16:31;1.20;;;1.20;;
10082;SDS011;5080;48.528;8.078;2023-04-06T14:18:58;1.40;;;1.40;;
10082;SDS011;5080;48.528;8.078;2023-04-06T14:21:27;1.52;;;1.50;;
10082;SDS011;5080;48.528;8.078;2023-04-06T14:23:54;1.65;;;1.55;;
10082;SDS011;5080;48.528;8.078;2023-04-06T14:26:21;1.60;;;1.50;;
10082;SDS011;5080;48.528;8.078;2023-04-06T14:28:49;1.42;;;1.40;;
10082;SDS011;5080;48.528;8.078;2023-04-06T14:31:16;1.40;;;1.40;;
10082;SDS011;5080;48.528;8.078;2023-04-06T14:33:43;1.48;;;1.45;;
10082;SDS011;5080;48.528;8.078;2023-04-06T14:36:11;1.40;;;1.40;;
10082;SDS011;5080;48.528;8.078;2023-04-06T14:38:39;1.67;;;1.45;;
10082;SDS011;5080;48.528;8.078;2023-04-06T14:41:06;1.73;;;1.63;;
10082;SDS011;5080;48.528;8.078;2023-04-06T14:43:33;1.40;;;1.30;;
10082;SDS011;5080;48.528;8.078;2023-04-06T14:46:00;1.38;;;1.38;;
10082;SDS011;5080;48.528;8.078;2023-04-06T14:48:28;1.92;;;1.83;;
10082;SDS011;5080;48.528;8.078;2023-04-06T14:50:55;1.42;;;1.35;;
10082;SDS011;5080;48.528;8.078;2023-04-06T14:53:22;1.38;;;1.38;;
10082;SDS011;5080;48.528;8.078;2023-04-06T14:55:50;1.20;;;1.20;;
10082;SDS011;5080;48.528;8.078;2023-04-06T14:58:17;1.75;;;1.65;;
10082;SDS011;5080;48.528;8.078;2023-04-06T15:00:44;1.30;;;1.30;;
10082;SDS011;5080;48.528;8.078;2023-04-06T15:03:11;1.40;;;1.40;;